Terminal Aerodrome Forecast
Issued by NWS

Home | Current Version | Previous Version | Text Only | Print | Product List | Glossary On
Versions: 1 2 3 4 5 6 7 8 9 10 11 12 13 14
000
FTUS46 KSGX 061122
TAFONT
TAF
KONT 061122Z 0612/0718 VRB05KT P6SM OVC025
     FM061800 VRB05KT P6SM SCT025 BKN035
     FM062000 24011G19KT P6SM SCT040
     FM070400 25012KT P6SM BKN035
     FM070800 VRB04KT P6SM OVC030=

USA.gov is the U.S. government's official web portal to all federal, state and local government web resources and services.